Time;durP1;ratioP1;P1;durP2;ratioP2;P2;SDS_P1;SDS_P2;PMS_P1;PMS_P2;Temp;Humidity;BMP_temperature;BMP_pressure;BME280_temperature;BME280_humidity;BME280_pressure;Samples;Min_cycle;Max_cycle;Signal;HPM_P1;HPM_P2
2023/12/10 00:01:15;;;;;;;;;;;;;;;-140.72;100.00;55447.88;5097054;28;19930;-72
2023/12/10 00:03:41;;;;;;;;;;;;;;;-140.72;100.00;55541.31;5098530;28;20348;-72
2023/12/10 00:06:06;;;;;;;;;;;;;;;-140.72;100.00;55565.66;5094064;28;20412;-71
2023/12/10 00:08:32;;;;;;;;;;;;;;;-140.72;100.00;55614.41;5080787;28;19944;-72
2023/12/10 00:10:57;;;;;;;;;;;;;;;-140.72;100.00;55653.00;5092716;28;19916;-72
2023/12/10 00:13:22;;;;;;;;;;;;;;;-140.72;100.00;55675.34;5083942;28;19928;-72
2023/12/10 00:15:47;;;;;;;;;;;;;;;-140.72;100.00;55671.28;5080183;28;20019;-72
2023/12/10 00:18:13;;;;;;;;;;;;;;;-140.72;100.00;55742.34;5102607;28;19920;-72
2023/12/10 00:20:38;;;;;;;;;;;;;;;-140.72;100.00;55748.44;5093870;28;19931;-71
2023/12/10 00:23:03;;;;;;;;;;;;;;;-140.72;100.00;55764.69;5092818;28;19928;-72
2023/12/10 00:25:31;;;;;;;;;;;;;;;-140.72;100.00;55774.84;5087919;28;20297;-71
2023/12/10 00:27:57;;;;;;;;;;;;;;;-140.72;100.00;55825.63;5097217;28;19916;-72
2023/12/10 00:30:22;;;;;;;;;;;;;;;-140.72;100.00;55860.13;5108014;28;19920;-71
2023/12/10 00:32:47;;;;;;;;;;;;;;;-140.72;100.00;55841.88;5097896;28;19916;-72
2023/12/10 00:35:13;;;;;;;;;;;;;;;-140.72;100.00;55866.22;5074542;28;19921;-72
2023/12/10 00:37:38;;;;;;;;;;;;;;;-140.72;100.00;55969.81;5077594;28;20374;-72
2023/12/10 00:40:06;;;;;;;;;;;;;;;-140.72;100.00;55886.53;5085822;28;20384;-72
2023/12/10 00:42:31;;;;;;;;;;;;;;;-140.72;100.00;55843.88;5066511;28;20287;-71
2023/12/10 00:44:56;;;;;;;;;;;;;;;-140.72;100.00;55852.00;5087826;28;19928;-71
2023/12/10 00:47:22;;;;;;;;;;;;;;;-140.72;100.00;55813.44;5082375;28;20014;-72
2023/12/10 00:49:47;;;;;;;;;;;;;;;-140.72;100.00;55801.25;5099598;28;19976;-71
2023/12/10 00:52:12;;;;;;;;;;;;;;;-140.72;100.00;55833.75;5102190;28;20020;-72
2023/12/10 00:54:37;;;;;;;;;;;;;;;-140.72;100.00;55776.88;5102847;28;20050;-73
2023/12/10 00:57:03;;;;;;;;;;;;;;;-140.72;100.00;55797.19;5097688;28;19920;-72
2023/12/10 00:59:28;;;;;;;;;;;;;;;-140.72;100.00;55736.25;5095015;28;19920;-72
2023/12/10 01:01:53;;;;;;;;;;;;;;;-140.72;100.00;55736.25;5089298;28;20312;-72
2023/12/10 01:04:19;;;;;;;;;;;;;;;-140.72;100.00;55726.09;5084701;28;19961;-72
2023/12/10 01:06:46;;;;;;;;;;;;;;;-140.72;100.00;55667.22;5094675;28;19924;-72
2023/12/10 01:09:11;;;;;;;;;;;;;;;-140.72;100.00;55624.56;5093120;28;19981;-73
2023/12/10 01:11:37;;;;;;;;;;;;;;;-140.72;100.00;55577.84;5101044;28;19920;-72
2023/12/10 01:14:03;;;;;;;;;;;;;;;-140.72;100.00;55470.22;5098430;28;19920;-74
2023/12/10 01:16:28;;;;;;;;;;;;;;;-140.72;100.00;55378.84;5103228;28;19975;-72
2023/12/10 01:18:54;;;;;;;;;;;;;;;-140.72;100.00;55267.16;5100772;28;19931;-72
2023/12/10 01:21:19;;;;;;;;;;;;;;;-140.72;100.00;55281.38;5099073;28;19920;-72
2023/12/10 01:23:44;;;;;;;;;;;;;;;-140.72;100.00;55161.56;5098055;28;19965;-72
2023/12/10 01:26:12;;;;;;;;;;;;;;;-140.72;100.00;55096.59;5095456;28;19920;-71
2023/12/10 01:28:38;;;;;;;;;;;;;;;-140.72;100.00;55033.66;5084560;28;20354;-72
2023/12/10 01:31:03;;;;;;;;;;;;;;;-140.72;100.00;54993.03;5095627;28;19928;-72
2023/12/10 01:33:28;;;;;;;;;;;;;;;-140.72;100.00;54980.84;5091020;28;19920;-72
2023/12/10 01:35:54;;;;;;;;;;;;;;;-140.72;100.00;54899.66;5083485;28;19924;-72
2023/12/10 01:38:19;;;;;;;;;;;;;;;-140.72;100.00;54885.44;5090742;28;19952;-72
2023/12/10 01:40:44;;;;;;;;;;;;;;;-140.72;100.00;54879.34;5092527;28;19920;-72
2023/12/10 01:43:11;;;;;;;;;;;;;;;-140.72;100.00;54802.19;5098940;28;19974;-72
2023/12/10 01:45:36;;;;;;;;;;;;;;;-140.72;100.00;54794.06;5099161;28;20329;-72
2023/12/10 01:48:04;;;;;;;;;;;;;;;-140.72;100.00;54720.97;5094977;28;20006;-72
2023/12/10 01:50:31;;;;;;;;;;;;;;;-140.72;100.00;54684.44;5077166;28;19927;-73
2023/12/10 01:52:58;;;;;;;;;;;;;;;-140.72;100.00;54716.91;5098481;28;20330;-72
2023/12/10 01:55:23;;;;;;;;;;;;;;;-140.72;100.00;54676.31;5091339;28;19974;-72
2023/12/10 01:57:49;;;;;;;;;;;;;;;-140.72;100.00;54651.94;5101410;28;20344;-72
2023/12/10 02:00:14;;;;;;;;;;;;;;;-140.72;100.00;54755.50;5102717;28;19996;-72
2023/12/10 02:02:40;;;;;;;;;;;;;;;-140.72;100.00;54802.19;5099111;28;20011;-72
2023/12/10 02:05:06;;;;;;;;;;;;;;;-140.72;100.00;54903.69;5103434;28;19943;-72
2023/12/10 02:07:32;;;;;;;;;;;;;;;-140.72;100.00;54915.88;5098050;28;19920;-71
2023/12/10 02:09:57;;;;;;;;;;;;;;;-140.72;100.00;54956.50;5101503;28;19981;-72
2023/12/10 02:12:23;;;;;;;;;;;;;;;-140.72;100.00;54968.69;5096190;28;19924;-73
2023/12/10 02:14:48;;;;;;;;;;;;;;;-140.72;100.00;55045.84;5100476;28;19928;-73
2023/12/10 02:17:14;;;;;;;;;;;;;;;-140.72;100.00;55037.72;5097507;28;20366;-72
2023/12/10 02:19:39;;;;;;;;;;;;;;;-140.72;100.00;55108.78;5101050;28;19920;-73
2023/12/10 02:22:04;;;;;;;;;;;;;;;-140.72;100.00;55068.16;5093050;28;20019;-73
2023/12/10 02:24:42;;;;;;;;;;;;;;;-140.72;100.00;55080.34;5094800;28;19924;-73
2023/12/10 02:27:07;;;;;;;;;;;;;;;-140.72;100.00;55070.19;5098268;28;19994;-73
2023/12/10 02:29:33;;;;;;;;;;;;;;;-140.72;100.00;55053.97;5096337;28;19938;-73
2023/12/10 02:31:58;;;;;;;;;;;;;;;-140.72;100.00;55082.38;5096726;28;19974;-73
2023/12/10 02:34:23;;;;;;;;;;;;;;;-140.72;100.00;55045.84;5097935;28;20323;-72
2023/12/10 02:36:49;;;;;;;;;;;;;;;-140.72;100.00;55070.19;5097913;28;19927;-72
2023/12/10 02:39:14;;;;;;;;;;;;;;;-140.72;100.00;55072.22;5100844;28;19920;-71
2023/12/10 02:41:40;;;;;;;;;;;;;;;-140.72;100.00;55056.00;5098138;28;20446;-72
2023/12/10 02:44:06;;;;;;;;;;;;;;;-140.72;100.00;55053.97;5094490;28;19948;-72
2023/12/10 02:46:31;;;;;;;;;;;;;;;-140.72;100.00;55025.53;5103203;28;19927;-71
2023/12/10 02:48:56;;;;;;;;;;;;;;;-140.72;100.00;54980.84;5098160;28;20010;-71
2023/12/10 02:51:21;;;;;;;;;;;;;;;-140.72;100.00;54993.03;5094631;28;19939;-71
2023/12/10 02:53:47;;;;;;;;;;;;;;;-140.72;100.00;55045.84;5079370;28;20011;-72
2023/12/10 02:56:12;;;;;;;;;;;;;;;-140.72;100.00;54976.81;5096418;28;19920;-72
2023/12/10 02:58:37;;;;;;;;;;;;;;;-140.72;100.00;54976.81;5099905;28;19924;-72
2023/12/10 03:01:03;;;;;;;;;;;;;;;-140.72;100.00;54964.63;5109792;28;19943;-72
2023/12/10 03:03:28;;;;;;;;;;;;;;;-140.72;100.00;54930.09;5110204;28;19942;-72
2023/12/10 03:05:53;;;;;;;;;;;;;;;-140.72;100.00;54966.66;5099306;28;19924;-72
2023/12/10 03:08:19;;;;;;;;;;;;;;;-140.72;100.00;54954.47;5106886;28;19919;-72
2023/12/10 03:10:44;;;;;;;;;;;;;;;-140.72;100.00;54964.63;5101379;28;19919;-72
2023/12/10 03:13:09;;;;;;;;;;;;;;;-140.72;100.00;54938.22;5094349;28;19920;-71
2023/12/10 03:15:34;;;;;;;;;;;;;;;-140.72;100.00;54972.75;5103268;28;19927;-72
2023/12/10 03:18:01;;;;;;;;;;;;;;;-140.72;100.00;54921.97;5103917;28;20297;-71
2023/12/10 03:20:26;;;;;;;;;;;;;;;-140.72;100.00;54911.81;5095098;28;19928;-72
2023/12/10 03:22:51;;;;;;;;;;;;;;;-140.72;100.00;54964.63;5083267;28;19950;-72
2023/12/10 03:25:16;;;;;;;;;;;;;;;-140.72;100.00;54928.06;5102744;28;19920;-72
2023/12/10 03:27:42;;;;;;;;;;;;;;;-140.72;100.00;54940.25;5103920;28;19952;-72
2023/12/10 03:30:07;;;;;;;;;;;;;;;-140.72;100.00;54897.63;5085377;28;19927;-72
2023/12/10 03:32:33;;;;;;;;;;;;;;;-140.72;100.00;54842.78;5106899;28;19919;-72
2023/12/10 03:34:58;;;;;;;;;;;;;;;-140.72;100.00;54777.81;5099749;28;19920;-72
2023/12/10 03:37:23;;;;;;;;;;;;;;;-140.72;100.00;54731.13;5099290;28;19924;-72
2023/12/10 03:39:49;;;;;;;;;;;;;;;-140.72;100.00;54684.44;5100881;28;20030;-73
2023/12/10 03:42:14;;;;;;;;;;;;;;;-140.72;100.00;54712.84;5097890;28;19932;-72
2023/12/10 03:44:40;;;;;;;;;;;;;;;-140.72;100.00;54680.38;5100561;28;20376;-73
2023/12/10 03:47:05;;;;;;;;;;;;;;;-140.72;100.00;54629.59;5100248;28;19924;-72
2023/12/10 03:49:30;;;;;;;;;;;;;;;-140.72;100.00;54633.66;5100002;28;20030;-72
2023/12/10 03:51:56;;;;;;;;;;;;;;;-140.72;100.00;54627.56;5097620;28;19920;-73
2023/12/10 03:54:21;;;;;;;;;;;;;;;-140.72;100.00;54607.28;5100664;28;20305;-73
2023/12/10 03:56:46;;;;;;;;;;;;;;;-140.72;100.00;54556.53;5093502;28;19920;-72
2023/12/10 03:59:12;;;;;;;;;;;;;;;-140.72;100.00;54570.72;5088080;28;19920;-72
2023/12/10 04:01:40;;;;;;;;;;;;;;;-140.72;100.00;54497.66;5096359;28;19935;-72
2023/12/10 04:04:05;;;;;;;;;;;;;;;-140.72;100.00;54544.34;5081882;28;20026;-73
2023/12/10 04:06:30;;;;;;;;;;;;;;;-140.72;100.00;54501.69;5104442;28;19967;-73
2023/12/10 04:08:56;;;;;;;;;;;;;;;-140.72;100.00;54461.09;5103463;28;20005;-73
2023/12/10 04:11:22;;;;;;;;;;;;;;;-140.72;100.00;54505.75;5092549;28;19923;-73
2023/12/10 04:13:47;;;;;;;;;;;;;;;-140.72;100.00;54481.41;5096552;28;20396;-73
2023/12/10 04:16:22;;;;;;;;;;;;;;;-140.72;100.00;54509.81;5098399;28;19935;-73
2023/12/10 04:18:47;;;;;;;;;;;;;;;-140.72;100.00;54489.53;5099605;28;19927;-73
2023/12/10 04:21:12;;;;;;;;;;;;;;;-140.72;100.00;54491.56;5099221;28;19919;-73
2023/12/10 04:23:38;;;;;;;;;;;;;;;-140.72;100.00;54493.59;5096223;28;19920;-73
2023/12/10 04:26:03;;;;;;;;;;;;;;;-140.72;100.00;54491.56;5099136;28;19924;-73
2023/12/10 04:28:28;;;;;;;;;;;;;;;-140.72;100.00;54493.59;5101662;28;19924;-73
2023/12/10 04:30:54;;;;;;;;;;;;;;;-140.72;100.00;54505.75;5099501;28;20435;-73
2023/12/10 04:33:19;;;;;;;;;;;;;;;-140.72;100.00;54493.59;5075539;28;19986;-73
2023/12/10 04:35:44;;;;;;;;;;;;;;;-140.72;100.00;54481.41;5097283;28;20033;-73
2023/12/10 04:38:09;;;;;;;;;;;;;;;-140.72;100.00;54479.38;5076192;28;19920;-73
2023/12/10 04:40:35;;;;;;;;;;;;;;;-140.72;100.00;54538.25;5094178;28;19920;-73
2023/12/10 04:43:00;;;;;;;;;;;;;;;-140.72;100.00;54515.91;5092185;28;19920;-73
2023/12/10 04:45:25;;;;;;;;;;;;;;;-140.72;100.00;54538.25;5082295;28;19931;-73
2023/12/10 04:47:50;;;;;;;;;;;;;;;-140.72;100.00;54489.53;5094990;28;19927;-73
2023/12/10 04:50:16;;;;;;;;;;;;;;;-140.72;100.00;54548.41;5098506;28;20361;-73
2023/12/10 04:52:41;;;;;;;;;;;;;;;-140.72;100.00;54501.69;5102507;28;20011;-73
2023/12/10 04:55:06;;;;;;;;;;;;;;;-140.72;100.00;54481.41;5101057;28;19927;-73
2023/12/10 04:57:31;;;;;;;;;;;;;;;-140.72;100.00;54517.94;5102205;28;20367;-73
2023/12/10 04:59:57;;;;;;;;;;;;;;;-140.72;100.00;54491.56;5076721;28;19920;-73
2023/12/10 05:02:23;;;;;;;;;;;;;;;-140.72;100.00;54517.94;5091842;28;20365;-73
2023/12/10 05:04:48;;;;;;;;;;;;;;;-140.72;100.00;54550.44;5096728;28;19919;-73
2023/12/10 05:07:13;;;;;;;;;;;;;;;-140.72;100.00;54509.81;5094749;28;20280;-73
2023/12/10 05:09:38;;;;;;;;;;;;;;;-140.72;100.00;54526.06;5100785;28;19927;-73
2023/12/10 05:12:04;;;;;;;;;;;;;;;-140.72;100.00;54548.41;5098073;28;19945;-72
2023/12/10 05:14:29;;;;;;;;;;;;;;;-140.72;100.00;54503.72;5103060;28;20387;-73
2023/12/10 05:16:54;;;;;;;;;;;;;;;-140.72;100.00;54489.53;5102469;28;19931;-73
2023/12/10 05:19:20;;;;;;;;;;;;;;;-140.72;100.00;54522.00;5097427;28;20288;-73
2023/12/10 05:21:45;;;;;;;;;;;;;;;-140.72;100.00;54483.44;5096353;28;19927;-73
2023/12/10 05:24:11;;;;;;;;;;;;;;;-140.72;100.00;54481.41;5098278;28;19920;-73
2023/12/10 05:26:36;;;;;;;;;;;;;;;-140.72;100.00;54455.00;5099917;28;19928;-72
2023/12/10 05:29:01;;;;;;;;;;;;;;;-140.72;100.00;54473.28;5098835;28;19943;-73
2023/12/10 05:31:26;;;;;;;;;;;;;;;-140.72;100.00;54513.88;5095615;28;19924;-72
2023/12/10 05:33:52;;;;;;;;;;;;;;;-140.72;100.00;54485.47;5094290;28;20285;-72
2023/12/10 05:36:17;;;;;;;;;;;;;;;-140.72;100.00;54560.59;5100121;28;19932;-72
2023/12/10 05:38:42;;;;;;;;;;;;;;;-140.72;100.00;54524.03;5081932;28;19920;-73
2023/12/10 05:41:08;;;;;;;;;;;;;;;-140.72;100.00;54544.34;5104660;28;19920;-73
2023/12/10 05:43:33;;;;;;;;;;;;;;;-140.72;100.00;54562.59;5100331;28;19924;-74
2023/12/10 05:45:58;;;;;;;;;;;;;;;-140.72;100.00;54530.13;5099794;28;19920;-73
2023/12/10 05:48:24;;;;;;;;;;;;;;;-140.72;100.00;54507.78;5096555;28;20385;-72
2023/12/10 05:50:49;;;;;;;;;;;;;;;-140.72;100.00;54526.06;5096120;28;19945;-72
2023/12/10 05:53:14;;;;;;;;;;;;;;;-140.72;100.00;54489.53;5100746;28;19952;-72
2023/12/10 05:55:39;;;;;;;;;;;;;;;-140.72;100.00;54485.47;5091155;28;19920;-72
2023/12/10 05:58:05;;;;;;;;;;;;;;;-140.72;100.00;54493.59;5095718;28;19920;-72
2023/12/10 06:00:30;;;;;;;;;;;;;;;-140.72;100.00;54507.78;5096613;28;19981;-73
2023/12/10 06:02:55;;;;;;;;;;;;;;;-140.72;100.00;54471.25;5088494;28;19965;-72
2023/12/10 06:05:21;;;;;;;;;;;;;;;-140.72;100.00;54459.06;5108698;28;20340;-73
2023/12/10 06:07:46;;;;;;;;;;;;;;;-140.72;100.00;54491.56;5084467;28;19923;-75
2023/12/10 06:10:12;;;;;;;;;;;;;;;-140.72;100.00;54477.34;5075826;28;19921;-74
2023/12/10 06:12:37;;;;;;;;;;;;;;;-140.72;100.00;54444.84;5080587;28;19951;-73
2023/12/10 06:15:03;;;;;;;;;;;;;;;-140.72;100.00;54481.41;5095511;28;19927;-74
2023/12/10 06:17:28;;;;;;;;;;;;;;;-140.72;100.00;54444.84;5073576;28;19920;-75
2023/12/10 06:19:53;;;;;;;;;;;;;;;-140.72;100.00;54461.09;5103111;28;20023;-74
2023/12/10 06:22:19;;;;;;;;;;;;;;;-140.72;100.00;54495.63;5095648;28;19981;-79
2023/12/10 06:24:44;;;;;;;;;;;;;;;-140.72;100.00;54424.56;5085288;28;19930;-76
2023/12/10 06:27:10;;;;;;;;;;;;;;;-140.72;100.00;54467.19;5102578;28;19928;-73
2023/12/10 06:29:35;;;;;;;;;;;;;;;-140.72;100.00;54481.41;5097212;28;20014;-73
2023/12/10 06:32:00;;;;;;;;;;;;;;;-140.72;100.00;54438.78;5101825;28;19924;-73
2023/12/10 06:34:25;;;;;;;;;;;;;;;-140.72;100.00;54414.41;5103112;28;20377;-73
2023/12/10 06:36:51;;;;;;;;;;;;;;;-140.72;100.00;54420.50;5096977;28;19919;-73
2023/12/10 06:39:16;;;;;;;;;;;;;;;-140.72;100.00;54440.81;5105310;28;19920;-72
2023/12/10 06:41:42;;;;;;;;;;;;;;;-140.72;100.00;54440.81;5100186;28;19973;-73
2023/12/10 06:44:09;;;;;;;;;;;;;;;-140.72;100.00;54461.09;5096846;28;20377;-72
2023/12/10 06:46:35;;;;;;;;;;;;;;;-140.72;100.00;54412.38;5103214;28;19927;-74
2023/12/10 06:49:01;;;;;;;;;;;;;;;-140.72;100.00;54410.34;5095357;28;19920;-72
2023/12/10 06:51:26;;;;;;;;;;;;;;;-140.72;100.00;54440.81;5103761;28;19920;-73
2023/12/10 06:53:51;;;;;;;;;;;;;;;-140.72;100.00;54422.53;5097465;28;20431;-73
2023/12/10 06:56:16;;;;;;;;;;;;;;;-140.72;100.00;54428.63;5097570;28;19926;-73
2023/12/10 06:58:42;;;;;;;;;;;;;;;-140.72;100.00;54457.03;5088330;28;19920;-73
2023/12/10 07:01:09;;;;;;;;;;;;;;;-140.72;100.00;54392.06;5092797;28;20699;-72
2023/12/10 07:03:34;;;;;;;;;;;;;;;-140.72;100.00;54412.38;5104672;28;19920;-73
2023/12/10 07:06:03;;;;;;;;;;;;;;;-140.72;100.00;54410.34;5093251;28;19927;-73
2023/12/10 07:08:28;;;;;;;;;;;;;;;-140.72;100.00;54412.38;5096940;28;19924;-72
2023/12/10 07:10:54;;;;;;;;;;;;;;;-140.72;100.00;54432.69;5105602;28;19927;-73
2023/12/10 07:13:19;;;;;;;;;;;;;;;-140.72;100.00;54428.63;5099183;28;20273;-73
2023/12/10 07:15:45;;;;;;;;;;;;;;;-140.72;100.00;54465.16;5102733;28;19920;-73
2023/12/10 07:18:11;;;;;;;;;;;;;;;-140.72;100.00;54444.84;5090685;28;19927;-73
2023/12/10 07:20:36;;;;;;;;;;;;;;;-140.72;100.00;54428.63;5092763;28;19962;-73
2023/12/10 07:23:02;;;;;;;;;;;;;;;-140.72;100.00;54483.44;5101276;28;19920;-73
2023/12/10 07:25:27;;;;;;;;;;;;;;;-140.72;100.00;54436.75;5096449;28;19926;-73
2023/12/10 07:27:53;;;;;;;;;;;;;;;-140.72;100.00;54448.91;5100375;28;19978;-72
2023/12/10 07:30:18;;;;;;;;;;;;;;;-140.72;100.00;54465.16;5096920;28;20282;-73
2023/12/10 07:32:43;;;;;;;;;;;;;;;-140.72;100.00;54436.75;5110829;28;19931;-73
2023/12/10 07:35:08;;;;;;;;;;;;;;;-140.72;100.00;54467.19;5080002;28;19931;-75
2023/12/10 07:37:34;;;;;;;;;;;;;;;-140.72;100.00;54489.53;5097197;28;19988;-72
2023/12/10 07:39:59;;;;;;;;;;;;;;;-140.72;100.00;54463.13;5100286;28;19939;-72
2023/12/10 07:42:24;;;;;;;;;;;;;;;-140.72;100.00;54455.00;5101231;28;20069;-72
2023/12/10 07:44:49;;;;;;;;;;;;;;;-140.72;100.00;54461.09;5103157;28;19926;-74
2023/12/10 07:47:15;;;;;;;;;;;;;;;-140.72;100.00;54432.69;5093044;28;19926;-73
2023/12/10 07:49:40;;;;;;;;;;;;;;;-140.72;100.00;54471.25;5095329;28;19939;-73
2023/12/10 07:52:06;;;;;;;;;;;;;;;-140.72;100.00;54459.06;5107192;28;19924;-72
2023/12/10 07:54:31;;;;;;;;;;;;;;;-140.72;100.00;54497.66;5099849;28;19928;-73
2023/12/10 07:56:56;;;;;;;;;;;;;;;-140.72;100.00;54483.44;5089047;28;20385;-74
2023/12/10 07:59:22;;;;;;;;;;;;;;;-140.72;100.00;54481.41;5086705;28;19930;-72
2023/12/10 08:01:47;;;;;;;;;;;;;;;-140.72;100.00;54440.81;5092530;28;19928;-73
2023/12/10 08:04:12;;;;;;;;;;;;;;;-140.72;100.00;54444.84;5099962;28;21281;-73
2023/12/10 08:06:38;;;;;;;;;;;;;;;-140.72;100.00;54507.78;5104603;28;19935;-74
2023/12/10 08:09:06;;;;;;;;;;;;;;;-140.72;100.00;54493.59;5108692;28;20381;-76
2023/12/10 08:11:31;;;;;;;;;;;;;;;-140.72;100.00;54471.25;5099773;28;20444;-72
2023/12/10 08:13:56;;;;;;;;;;;;;;;-140.72;100.00;54469.22;5086080;28;19963;-73
2023/12/10 08:16:22;;;;;;;;;;;;;;;-140.72;100.00;54450.94;5089333;28;19919;-74
2023/12/10 08:18:47;;;;;;;;;;;;;;;-140.72;100.00;54448.91;5097933;28;19920;-73
2023/12/10 08:21:14;;;;;;;;;;;;;;;-140.72;100.00;54485.47;5103973;28;19928;-74
2023/12/10 08:23:39;;;;;;;;;;;;;;;-140.72;100.00;54475.31;5100999;28;19920;-74
2023/12/10 08:26:04;;;;;;;;;;;;;;;-140.72;100.00;54467.19;5098603;28;19920;-74
2023/12/10 08:28:30;;;;;;;;;;;;;;;-140.72;100.00;54536.22;5100610;28;20003;-75
2023/12/10 08:30:55;;;;;;;;;;;;;;;-140.72;100.00;54442.81;5100000;28;19987;-73
2023/12/10 08:33:20;;;;;;;;;;;;;;;-140.72;100.00;54475.31;5101347;28;19920;-73
2023/12/10 08:35:46;;;;;;;;;;;;;;;-140.72;100.00;54434.72;5096038;28;20015;-73
2023/12/10 08:38:11;;;;;;;;;;;;;;;-140.72;100.00;54440.81;5070562;28;20018;-73
2023/12/10 08:40:36;;;;;;;;;;;;;;;-140.72;100.00;54442.81;5096611;28;20331;-73
2023/12/10 08:43:01;;;;;;;;;;;;;;;-140.72;100.00;54455.00;5097868;28;20288;-73
2023/12/10 08:45:27;;;;;;;;;;;;;;;-140.72;100.00;54432.69;5095562;28;19920;-73
2023/12/10 08:47:52;;;;;;;;;;;;;;;-140.72;100.00;54440.81;5094320;28;20006;-73
2023/12/10 08:50:17;;;;;;;;;;;;;;;-140.72;100.00;54428.63;5100843;28;19983;-73
2023/12/10 08:52:42;;;;;;;;;;;;;;;-140.72;100.00;54444.84;5095983;28;19927;-73
2023/12/10 08:55:08;;;;;;;;;;;;;;;-140.72;100.00;54446.88;5093950;28;19924;-73
2023/12/10 08:57:33;;;;;;;;;;;;;;;-140.72;100.00;54432.69;5098728;28;19935;-73
2023/12/10 09:00:00;;;;;;;;;;;;;;;-140.72;100.00;54461.09;5095038;28;19963;-72
2023/12/10 09:02:26;;;;;;;;;;;;;;;-140.72;100.00;54511.84;5097739;28;19934;-72
2023/12/10 09:04:51;;;;;;;;;;;;;;;-140.72;100.00;54524.03;5089835;28;19928;-73
2023/12/10 09:07:16;;;;;;;;;;;;;;;-140.72;100.00;54530.13;5092178;28;20309;-72
2023/12/10 09:09:42;;;;;;;;;;;;;;;-140.72;100.00;54501.69;5090705;28;19920;-73
2023/12/10 09:12:07;;;;;;;;;;;;;;;-140.72;100.00;54511.84;5094030;28;19968;-72
2023/12/10 09:14:32;;;;;;;;;;;;;;;-140.72;100.00;54517.94;5093949;28;19955;-72
2023/12/10 09:16:58;;;;;;;;;;;;;;;-140.72;100.00;54528.09;5097733;28;19927;-75
2023/12/10 09:19:25;;;;;;;;;;;;;;;-140.72;100.00;54511.84;5099040;28;19924;-73
2023/12/10 09:21:50;;;;;;;;;;;;;;;-140.72;100.00;54493.59;5102619;28;20002;-72
2023/12/10 09:24:15;;;;;;;;;;;;;;;-140.72;100.00;54493.59;5099607;28;19967;-72
2023/12/10 09:26:41;;;;;;;;;;;;;;;-140.72;100.00;54485.47;5095667;28;19927;-72
2023/12/10 09:29:06;;;;;;;;;;;;;;;-140.72;100.00;54524.03;5098432;28;19928;-73
2023/12/10 09:31:31;;;;;;;;;;;;;;;-140.72;100.00;54491.56;5092673;28;19943;-73
2023/12/10 09:33:57;;;;;;;;;;;;;;;-140.72;100.00;54481.41;5102099;28;19947;-72
2023/12/10 09:36:22;;;;;;;;;;;;;;;-140.72;100.00;54444.84;5081795;28;19920;-74
2023/12/10 09:38:47;;;;;;;;;;;;;;;-140.72;100.00;54465.16;5077629;28;19924;-73
2023/12/10 09:41:13;;;;;;;;;;;;;;;-140.72;100.00;54422.53;5096686;28;19916;-73
2023/12/10 09:43:38;;;;;;;;;;;;;;;-140.72;100.00;54442.81;5056388;28;20385;-72
2023/12/10 09:46:03;;;;;;;;;;;;;;;-140.72;100.00;54444.84;5072115;28;19917;-72
2023/12/10 09:48:30;;;;;;;;;;;;;;;-140.72;100.00;54442.81;5100893;28;20322;-73
2023/12/10 09:50:55;;;;;;;;;;;;;;;-140.72;100.00;54446.88;5090656;28;19981;-73
2023/12/10 09:53:21;;;;;;;;;;;;;;;-140.72;100.00;54469.22;5096111;28;19923;-75
2023/12/10 09:55:47;;;;;;;;;;;;;;;-140.72;100.00;54469.22;5078210;28;19968;-79
2023/12/10 09:58:12;;;;;;;;;;;;;;;-140.72;100.00;54416.44;5082443;28;20293;-73
2023/12/10 10:00:37;;;;;;;;;;;;;;;-140.72;100.00;54418.47;5105355;28;19946;-75
2023/12/10 10:03:03;;;;;;;;;;;;;;;-140.72;100.00;54440.81;5092686;28;19920;-73
2023/12/10 10:05:29;;;;;;;;;;;;;;;-140.72;100.00;54390.03;5094221;28;20410;-73
2023/12/10 10:07:54;;;;;;;;;;;;;;;-140.72;100.00;54357.56;5094029;28;19924;-73
2023/12/10 10:10:22;;;;;;;;;;;;;;;-140.72;100.00;54306.81;5098130;28;19926;-74
2023/12/10 10:12:47;;;;;;;;;;;;;;;-140.72;100.00;54331.16;5096722;28;20014;-73
2023/12/10 10:15:12;;;;;;;;;;;;;;;-140.72;100.00;54310.88;5092583;28;19928;-74
2023/12/10 10:17:38;;;;;;;;;;;;;;;-140.72;100.00;54272.31;5098869;28;19920;-74
2023/12/10 10:20:04;;;;;;;;;;;;;;;-140.72;100.00;54284.47;5095109;28;19994;-73
2023/12/10 10:22:30;;;;;;;;;;;;;;;-140.72;100.00;54233.72;5079964;28;20293;-73
2023/12/10 10:24:55;;;;;;;;;;;;;;;-140.72;100.00;54298.69;5099841;28;20377;-73
2023/12/10 10:27:21;;;;;;;;;;;;;;;-140.72;100.00;54286.50;5100062;28;19946;-74
2023/12/10 10:29:52;;;;;;;;;;;;;;;-140.72;100.00;54233.72;5084648;28;19927;-74
2023/12/10 10:32:18;;;;;;;;;;;;;;;-140.72;100.00;54288.53;5097542;28;19967;-73
2023/12/10 10:34:47;;;;;;;;;;;;;;;-140.72;100.00;54260.13;5102265;28;19924;-73
2023/12/10 10:37:12;;;;;;;;;;;;;;;-140.72;100.00;54264.19;5096668;28;19928;-73
2023/12/10 10:39:38;;;;;;;;;;;;;;;-140.72;100.00;54258.09;5103214;28;19920;-72
2023/12/10 10:42:08;;;;;;;;;;;;;;;-140.72;100.00;54231.69;5095798;28;19924;-73
2023/12/10 10:44:33;;;;;;;;;;;;;;;-140.72;100.00;54217.50;5105483;28;20014;-73
2023/12/10 10:47:00;;;;;;;;;;;;;;;-140.72;100.00;54213.44;5094141;28;19959;-73
2023/12/10 10:49:25;;;;;;;;;;;;;;;-140.72;100.00;54174.84;5107722;28;19927;-74
2023/12/10 10:51:51;;;;;;;;;;;;;;;-140.72;100.00;54130.19;5096141;28;20501;-75
2023/12/10 10:54:16;;;;;;;;;;;;;;;-140.72;100.00;54148.47;5100056;28;20386;-74
2023/12/10 10:56:44;;;;;;;;;;;;;;;-140.72;100.00;54199.22;5102303;28;19928;-74
2023/12/10 10:59:28;;;;;;;;;;;;;;;-140.72;100.00;54193.13;5094903;28;19931;-74
2023/12/10 11:01:54;;;;;;;;;;;;;;;-140.72;100.00;54193.13;5087221;28;19947;-75
2023/12/10 11:04:20;;;;;;;;;;;;;;;-140.72;100.00;54233.72;5098083;28;20015;-80
2023/12/10 11:06:46;;;;;;;;;;;;;;;-140.72;100.00;54282.44;5103191;28;19928;-75
2023/12/10 11:09:11;;;;;;;;;;;;;;;-140.72;100.00;54213.44;5086153;28;19931;-72
2023/12/10 11:11:39;;;;;;;;;;;;;;;-140.72;100.00;54247.94;5107630;28;19972;-75
2023/12/10 11:14:08;;;;;;;;;;;;;;;-140.72;100.00;54280.41;5103474;28;20438;-76
2023/12/10 11:16:35;;;;;;;;;;;;;;;-140.72;100.00;54333.19;5082108;28;20366;-74
2023/12/10 11:19:01;;;;;;;;;;;;;;;-140.72;100.00;54310.88;5074558;28;19920;-74
2023/12/10 11:21:26;;;;;;;;;;;;;;;-140.72;100.00;54310.88;5100606;28;19981;-74
2023/12/10 11:23:51;;;;;;;;;;;;;;;-140.72;100.00;54310.88;5095432;28;19963;-73
2023/12/10 11:26:17;;;;;;;;;;;;;;;-140.72;100.00;54333.19;5082350;28;19928;-73
2023/12/10 11:28:42;;;;;;;;;;;;;;;-140.72;100.00;54349.44;5090308;28;19988;-73
2023/12/10 11:31:08;;;;;;;;;;;;;;;-140.72;100.00;54294.63;5074617;28;19924;-73
2023/12/10 11:33:38;;;;;;;;;;;;;;;-140.72;100.00;54306.81;5096853;28;20344;-73
2023/12/10 11:36:04;;;;;;;;;;;;;;;-140.72;100.00;54284.47;5101119;28;19920;-73
2023/12/10 11:38:29;;;;;;;;;;;;;;;-140.72;100.00;54319.00;5086425;28;20340;-74
2023/12/10 11:40:54;;;;;;;;;;;;;;;-140.72;100.00;54300.72;5069184;28;19920;-73
2023/12/10 11:43:20;;;;;;;;;;;;;;;-140.72;100.00;54316.97;5103674;28;19943;-73
2023/12/10 11:45:45;;;;;;;;;;;;;;;-140.72;100.00;54314.94;5102224;28;20068;-74
2023/12/10 11:48:10;;;;;;;;;;;;;;;-140.72;100.00;54262.16;5094731;28;20007;-74
2023/12/10 11:50:36;;;;;;;;;;;;;;;-140.72;100.00;54245.91;5086986;28;20291;-73
2023/12/10 11:53:02;;;;;;;;;;;;;;;-140.72;100.00;54254.03;5095167;28;19920;-73
2023/12/10 11:55:28;;;;;;;;;;;;;;;-140.72;100.00;54203.28;5088476;28;19926;-74
2023/12/10 11:57:55;;;;;;;;;;;;;;;-140.72;100.00;54205.31;5094925;28;21214;-74
2023/12/10 12:00:20;;;;;;;;;;;;;;;-140.72;100.00;54164.72;5087273;28;20382;-73
2023/12/10 12:02:46;;;;;;;;;;;;;;;-140.72;100.00;54162.69;5092978;28;19961;-73
2023/12/10 12:05:13;;;;;;;;;;;;;;;-140.72;100.00;54116.00;5076890;28;20006;-73
2023/12/10 12:07:41;;;;;;;;;;;;;;;-140.72;100.00;54164.72;5076496;28;20359;-73
2023/12/10 12:10:07;;;;;;;;;;;;;;;-140.72;100.00;54136.28;5085104;28;19985;-73